Time;durP1;ratioP1;P1;durP2;ratioP2;P2;SDS_P1;SDS_P2;PMS_P1;PMS_P2;Temp;Humidity;BMP_temperature;BMP_pressure;BME280_temperature;BME280_humidity;BME280_pressure;Samples;Min_cycle;Max_cycle;Signal;HPM_P1;HPM_P2
2022/06/12 07:46:51;;;;;;;1.20;1.10;;;39.90;29.80;;;;;;5129701;27;20383;-73
2022/06/12 07:49:19;;;;;;;1.10;1.00;;;39.60;30.20;;;;;;5110146;28;20510;-72
2022/06/12 07:51:45;;;;;;;1.55;1.17;;;39.70;30.50;;;;;;5109598;28;20440;-72
2022/06/12 07:54:11;;;;;;;0.70;0.70;;;39.90;30.00;;;;;;5109340;28;20027;-73
2022/06/12 07:56:37;;;;;;;1.48;0.95;;;39.80;29.70;;;;;;5109448;28;20057;-72
2022/06/12 07:59:04;;;;;;;1.63;1.00;;;40.00;29.60;;;;;;5109051;28;20024;-72
2022/06/12 08:01:29;;;;;;;1.08;0.80;;;40.10;28.40;;;;;;5106040;28;20046;-72
2022/06/12 08:03:56;;;;;;;1.10;1.00;;;40.20;28.70;;;;;;5108384;28;20028;-73
2022/06/12 08:06:22;;;;;;;1.27;0.85;;;40.30;29.60;;;;;;5110779;28;20490;-72
2022/06/12 08:08:48;;;;;;;1.70;0.90;;;40.20;29.50;;;;;;5108805;28;20035;-72
2022/06/12 08:11:14;;;;;;;1.20;0.90;;;40.10;29.90;;;;;;5108919;28;20020;-72
2022/06/12 08:13:40;;;;;;;1.20;1.00;;;39.80;29.80;;;;;;5108528;28;20031;-73
2022/06/12 08:16:07;;;;;;;1.45;0.98;;;39.20;30.00;;;;;;5107385;28;20114;-72
2022/06/12 08:18:33;;;;;;;1.15;1.00;;;38.60;30.00;;;;;;5107555;28;20040;-74
2022/06/12 08:21:02;;;;;;;1.35;0.85;;;38.20;29.50;;;;;;5107806;28;20020;-79
2022/06/12 08:23:34;;;;;;;1.20;1.10;;;38.00;29.80;;;;;;5107896;28;20023;-79
2022/06/12 08:26:11;;;;;;;1.48;1.00;;;37.30;30.30;;;;;;5108237;28;20127;-77
2022/06/12 08:28:43;;;;;;;2.42;1.35;;;36.10;31.50;;;;;;5109005;28;20035;-79
2022/06/12 08:31:13;;;;;;;1.65;0.98;;;35.10;33.00;;;;;;5108799;28;20031;-78
2022/06/12 08:33:41;;;;;;;1.97;1.20;;;34.20;33.50;;;;;;5090453;28;20081;-79
2022/06/12 08:36:09;;;;;;;1.10;1.00;;;33.50;33.70;;;;;;5108590;28;20024;-79
2022/06/12 08:38:34;;;;;;;2.88;1.60;;;32.90;33.80;;;;;;5108835;28;20019;-79
2022/06/12 08:41:12;;;;;;;0.73;0.73;;;32.40;35.20;;;;;;5108621;28;20086;-79
2022/06/12 08:43:45;;;;;;;1.00;1.00;;;32.10;35.80;;;;;;5108781;28;20028;-79
2022/06/12 08:46:45;;;;;;;1.13;1.00;;;31.80;38.60;;;;;;5088650;28;20598;-79
2022/06/12 08:49:41;;;;;;;0.95;0.93;;;31.50;37.20;;;;;;5107686;28;20023;-79
2022/06/12 08:52:35;;;;;;;1.30;0.77;;;31.20;35.70;;;;;;5105072;28;20100;-79
2022/06/12 08:55:26;;;;;;;1.10;0.93;;;30.80;36.20;;;;;;5103685;28;20070;-80
2022/06/12 08:58:04;;;;;;;2.17;1.20;;;30.50;36.80;;;;;;5091800;28;20194;-78
2022/06/12 09:00:37;;;;;;;1.35;1.13;;;30.30;38.60;;;;;;5093072;28;20099;-79
2022/06/12 09:03:14;;;;;;;2.17;1.30;;;30.10;39.00;;;;;;5092238;28;20073;-73
2022/06/12 09:05:54;;;;;;;1.35;0.95;;;29.90;39.70;;;;;;5091202;28;20126;-73
2022/06/12 09:08:27;;;;;;;;;;;29.80;39.10;;;;;;5073862;28;20384;-72
2022/06/12 09:11:06;;;;;;;2.70;1.00;;;29.70;37.90;;;;;;5093603;28;19908;-71
2022/06/12 09:13:46;;;;;;;1.48;0.95;;;29.50;37.00;;;;;;5092410;28;20375;-72
2022/06/12 09:16:32;;;;;;;1.08;0.93;;;29.50;37.30;;;;;;5091446;28;20046;-74
2022/06/12 09:18:58;;;;;;;1.25;1.10;;;29.30;37.80;;;;;;5084088;28;20321;-73
2022/06/12 09:21:26;;;;;;;2.05;1.13;;;29.30;39.10;;;;;;5092605;28;20426;-75
2022/06/12 09:24:03;;;;;;;0.95;0.93;;;29.20;38.70;;;;;;5093657;28;20027;-72
2022/06/12 09:26:57;;;;;;;0.95;0.90;;;29.10;37.60;;;;;;5091269;28;20085;-74
2022/06/12 09:29:38;;;;;;;1.10;1.00;;;29.00;37.60;;;;;;5077125;28;20028;-74
2022/06/12 09:32:03;;;;;;;;;;;28.90;37.80;;;;;;5094288;28;20025;-74
2022/06/12 09:34:39;;;;;;;1.95;1.00;;;28.80;38.30;;;;;;5094061;28;20268;-73
2022/06/12 09:40:19;;;;;;;1.20;0.90;;;28.80;40.40;;;;;;5092831;28;20469;-73
2022/06/12 09:42:55;;;;;;;1.38;1.08;;;28.80;40.70;;;;;;5093100;28;20425;-73
2022/06/12 09:45:36;;;;;;;0.75;0.75;;;28.80;40.60;;;;;;5092581;28;20056;-73
2022/06/12 09:48:19;;;;;;;3.38;1.08;;;28.70;39.10;;;;;;5092478;28;20025;-71
2022/06/12 09:51:24;;;;;;;1.75;0.98;;;28.80;38.70;;;;;;5092720;28;20032;-73
2022/06/12 09:54:16;;;;;;;0.88;0.75;;;28.80;39.20;;;;;;5092922;28;20040;-73
2022/06/12 09:56:54;;;;;;;1.52;1.00;;;28.90;37.80;;;;;;5092818;28;20083;-74
2022/06/12 09:59:22;;;;;;;1.52;0.98;;;28.90;38.50;;;;;;5089672;28;20085;-73
2022/06/12 10:01:53;;;;;;;1.00;0.98;;;29.00;39.60;;;;;;5091997;28;20468;-73
2022/06/12 10:04:49;;;;;;;1.17;0.98;;;29.00;39.00;;;;;;5092682;28;20461;-73
2022/06/12 10:07:32;;;;;;;1.63;1.13;;;29.00;39.20;;;;;;5053291;28;20048;-72
2022/06/12 10:10:13;;;;;;;3.00;0.95;;;29.10;39.50;;;;;;5091511;28;20035;-73
2022/06/12 10:12:44;;;;;;;1.10;1.00;;;29.10;38.40;;;;;;5092624;28;20030;-74
2022/06/12 10:15:12;;;;;;;;;;;29.20;39.10;;;;;;5092983;28;20098;-74
2022/06/12 10:17:51;;;;;;;1.20;1.10;;;29.20;39.50;;;;;;5091788;28;19911;-73
2022/06/12 10:20:25;;;;;;;1.38;0.85;;;29.20;38.90;;;;;;5072189;28;20025;-73
2022/06/12 10:22:53;;;;;;;1.00;0.90;;;29.20;38.50;;;;;;5073243;28;20063;-72
2022/06/12 10:25:33;;;;;;;3.08;1.00;;;29.20;39.60;;;;;;5072084;28;20421;-72
2022/06/12 10:28:03;;;;;;;1.17;1.08;;;29.20;39.10;;;;;;5072674;28;20032;-72
2022/06/12 10:30:32;;;;;;;1.38;1.10;;;29.20;39.10;;;;;;5072934;28;20108;-73
2022/06/12 10:33:08;;;;;;;1.00;0.90;;;29.30;38.40;;;;;;5072403;28;20027;-72
2022/06/12 10:35:46;;;;;;;1.00;0.90;;;29.30;38.90;;;;;;5072361;28;20376;-73
2022/06/12 10:38:12;;;;;;;3.30;1.13;;;29.30;39.90;;;;;;5072130;28;20433;-72
2022/06/12 10:40:47;;;;;;;3.45;1.33;;;29.30;40.30;;;;;;5072571;28;20028;-72
2022/06/12 10:43:39;;;;;;;1.05;0.93;;;29.30;40.20;;;;;;5072011;28;20025;-72
2022/06/12 10:46:26;;;;;;;1.30;1.20;;;29.30;39.80;;;;;;5054400;28;20440;-72
2022/06/12 10:49:23;;;;;;;0.85;0.85;;;29.30;39.90;;;;;;5072636;28;20070;-72
2022/06/12 10:51:50;;;;;;;1.20;0.90;;;29.30;39.60;;;;;;5072116;28;20394;-73
2022/06/12 10:54:21;;;;;;;6.15;1.30;;;29.30;38.30;;;;;;5071739;28;20483;-72
2022/06/12 10:56:57;;;;;;;1.08;0.98;;;29.30;38.20;;;;;;5072382;28;20039;-72
2022/06/12 10:59:34;;;;;;;0.73;0.73;;;29.40;38.80;;;;;;5071855;28;20028;-72
2022/06/12 11:02:34;;;;;;;0.90;0.90;;;29.40;38.10;;;;;;5071858;28;20112;-72
2022/06/12 11:05:29;;;;;;;0.90;0.90;;;29.40;37.20;;;;;;5071881;28;20127;-72
2022/06/12 11:08:16;;;;;;;0.80;0.73;;;29.40;37.70;;;;;;5072191;28;20108;-73
2022/06/12 11:10:58;;;;;;;2.33;0.80;;;29.40;37.30;;;;;;5072226;28;20050;-72
2022/06/12 11:13:42;;;;;;;0.70;0.70;;;29.40;37.20;;;;;;5071513;28;20098;-72
2022/06/12 11:16:27;;;;;;;0.73;0.73;;;29.40;37.50;;;;;;5071701;28;20155;-72
2022/06/12 11:19:27;;;;;;;1.35;0.80;;;29.40;37.00;;;;;;5071994;28;20024;-72
2022/06/12 11:22:17;;;;;;;0.85;0.80;;;29.40;38.10;;;;;;5039604;28;20116;-72
2022/06/12 11:25:01;;;;;;;0.90;0.73;;;29.40;37.80;;;;;;5071461;28;20032;-73
2022/06/12 11:27:37;;;;;;;1.60;1.00;;;29.40;38.00;;;;;;5074081;28;20023;-72
2022/06/12 11:30:35;;;;;;;1.08;0.93;;;29.30;38.00;;;;;;5071912;28;20024;-72
2022/06/12 11:33:33;;;;;;;1.58;0.90;;;29.30;38.50;;;;;;5071733;28;20111;-72
2022/06/12 11:36:05;;;;;;;1.00;0.85;;;29.20;37.40;;;;;;5025199;28;20102;-72
2022/06/12 11:39:26;;;;;;;1.98;1.20;;;29.10;37.90;;;;;;5071980;28;20035;-73
2022/06/12 11:41:54;;;;;;;1.20;0.90;;;29.10;38.70;;;;;;4970636;28;20463;-72
2022/06/12 11:44:36;;;;;;;1.10;1.05;;;29.10;37.40;;;;;;5066072;28;20073;-72
2022/06/12 11:47:04;;;;;;;1.45;0.90;;;29.00;37.50;;;;;;5071789;28;20392;-73
2022/06/12 11:49:52;;;;;;;0.82;0.82;;;29.00;39.20;;;;;;5071655;28;20492;-72
2022/06/12 11:52:28;;;;;;;0.98;0.98;;;28.90;39.60;;;;;;5071606;28;20082;-72
2022/06/12 11:55:17;;;;;;;1.13;0.90;;;28.90;39.60;;;;;;5071954;28;20024;-72
2022/06/12 11:58:16;;;;;;;1.20;0.88;;;28.80;39.20;;;;;;5071797;28;20020;-73
2022/06/12 12:00:53;;;;;;;1.33;0.90;;;28.80;39.70;;;;;;5071573;28;20431;-72
2022/06/12 12:03:38;;;;;;;2.45;1.10;;;28.70;39.70;;;;;;5072736;28;20033;-74
2022/06/12 12:06:32;;;;;;;1.17;1.08;;;28.70;40.50;;;;;;5071457;28;20044;-73
2022/06/12 12:09:06;;;;;;;1.30;1.00;;;28.70;40.30;;;;;;5071337;28;20446;-73
2022/06/12 12:11:42;;;;;;;2.65;0.93;;;28.60;39.70;;;;;;5071569;28;20025;-72
2022/06/12 12:14:15;;;;;;;1.25;1.00;;;28.60;40.50;;;;;;5071110;28;20029;-72
2022/06/12 12:16:51;;;;;;;1.60;0.93;;;28.60;41.70;;;;;;5071734;28;20477;-72
2022/06/12 12:19:23;;;;;;;1.13;0.90;;;28.60;40.60;;;;;;5071384;28;20054;-72
2022/06/12 12:22:05;;;;;;;1.33;0.90;;;28.60;40.00;;;;;;5071585;28;20115;-72
2022/06/12 12:24:51;;;;;;;1.20;1.10;;;28.50;39.80;;;;;;5071392;28;20060;-72
2022/06/12 12:27:39;;;;;;;1.40;1.00;;;28.50;41.50;;;;;;5071053;28;20220;-73
2022/06/12 12:30:16;;;;;;;1.05;0.90;;;28.50;41.60;;;;;;5071319;28;20024;-72
2022/06/12 12:32:42;;;;;;;1.27;1.08;;;28.40;41.40;;;;;;5073617;28;20036;-72
2022/06/12 12:35:09;;;;;;;3.10;1.10;;;28.40;41.40;;;;;;5074872;28;20024;-72
2022/06/12 12:43:17;;;;;;;1.45;1.00;;;28.30;41.20;;;;;;5074600;28;20495;-72
2022/06/12 12:45:43;;;;;;;1.23;1.00;;;28.30;41.20;;;;;;5074487;28;20091;-72
2022/06/12 12:48:14;;;;;;;1.10;1.00;;;28.30;41.30;;;;;;5074531;28;20052;-71
2022/06/12 12:50:42;;;;;;;0.80;0.80;;;28.20;40.90;;;;;;5075042;28;20072;-72
2022/06/12 12:53:23;;;;;;;2.53;0.90;;;28.20;40.90;;;;;;5074499;28;20024;-72
2022/06/12 12:56:03;;;;;;;1.17;0.90;;;28.20;40.60;;;;;;5074800;28;20115;-71
2022/06/12 12:58:33;;;;;;;0.95;0.95;;;28.20;40.70;;;;;;5074271;28;20024;-71
2022/06/12 13:01:19;;;;;;;0.88;0.88;;;28.20;39.90;;;;;;5074563;28;20051;-72
2022/06/12 13:03:50;;;;;;;1.00;0.80;;;28.20;39.80;;;;;;5077833;28;20049;-71
2022/06/12 13:06:41;;;;;;;1.10;1.00;;;28.20;40.20;;;;;;5078139;28;20059;-71
2022/06/12 13:09:31;;;;;;;2.85;0.80;;;28.20;40.00;;;;;;5086718;28;20032;-73
2022/06/12 13:12:21;;;;;;;1.50;0.80;;;28.10;39.90;;;;;;5092539;28;20024;-72
2022/06/12 13:15:09;;;;;;;1.92;0.90;;;28.10;39.80;;;;;;5094508;28;20051;-72
2022/06/12 13:17:41;;;;;;;1.02;0.93;;;28.10;39.90;;;;;;5093610;28;20085;-71
2022/06/12 13:20:27;;;;;;;0.90;0.90;;;28.10;39.40;;;;;;5093139;28;20133;-72
2022/06/12 13:23:17;;;;;;;3.72;0.90;;;28.10;40.20;;;;;;5050778;28;20036;-73
2022/06/12 13:25:47;;;;;;;1.00;0.90;;;28.10;39.70;;;;;;5082213;28;20036;-72
2022/06/12 13:28:30;;;;;;;1.52;0.88;;;28.00;40.40;;;;;;5092755;28;20034;-72
2022/06/12 13:30:58;;;;;;;0.68;0.68;;;28.00;39.70;;;;;;5093262;28;20032;-72
2022/06/12 13:33:30;;;;;;;1.00;0.75;;;28.00;39.90;;;;;;5092788;28;20028;-72
2022/06/12 13:36:18;;;;;;;1.58;1.10;;;28.00;40.60;;;;;;5092956;28;20028;-72
2022/06/12 13:38:59;;;;;;;1.95;0.95;;;28.00;40.50;;;;;;5072387;28;20373;-71
2022/06/12 13:41:43;;;;;;;2.35;1.00;;;28.00;40.60;;;;;;5088238;28;20099;-72
2022/06/12 13:44:26;;;;;;;0.98;0.90;;;28.00;40.60;;;;;;5093425;28;20024;-72
2022/06/12 13:46:53;;;;;;;0.95;0.90;;;28.00;42.00;;;;;;5093332;28;20518;-73
2022/06/12 13:49:27;;;;;;;0.75;0.75;;;28.00;41.40;;;;;;5093073;28;20047;-73
2022/06/12 13:52:12;;;;;;;3.00;1.17;;;28.00;41.50;;;;;;5093672;28;20017;-72
2022/06/12 13:54:41;;;;;;;1.63;1.20;;;28.10;42.50;;;;;;5093551;28;20388;-72
2022/06/12 13:57:39;;;;;;;1.23;1.05;;;28.10;41.80;;;;;;5093133;28;20031;-73
2022/06/12 14:00:27;;;;;;;2.25;0.80;;;28.10;41.20;;;;;;5037808;28;20040;-73
2022/06/12 14:02:52;;;;;;;1.00;0.90;;;28.10;41.30;;;;;;5092910;28;20062;-73
2022/06/12 14:05:22;;;;;;;1.08;0.98;;;28.10;41.10;;;;;;5093069;28;20063;-72
2022/06/12 14:07:50;;;;;;;0.90;0.90;;;28.10;40.80;;;;;;5093231;28;20035;-72
2022/06/12 14:10:29;;;;;;;0.90;0.90;;;28.10;40.80;;;;;;5092896;28;20031;-72
2022/06/12 14:12:56;;;;;;;1.20;1.10;;;28.10;41.20;;;;;;5092926;28;20024;-73
2022/06/12 14:15:33;;;;;;;2.25;1.10;;;28.20;41.80;;;;;;5092409;28;20063;-73
2022/06/12 14:18:00;;;;;;;1.52;1.27;;;28.20;40.80;;;;;;5093346;28;20372;-72
2022/06/12 14:20:38;;;;;;;1.10;0.90;;;28.20;41.20;;;;;;5092745;28;20036;-72
2022/06/12 14:23:20;;;;;;;0.93;0.70;;;28.20;41.60;;;;;;5092516;28;20456;-72
2022/06/12 14:25:52;;;;;;;2.17;0.88;;;28.20;40.50;;;;;;5092817;28;20402;-73
2022/06/12 14:28:19;;;;;;;1.15;1.00;;;28.20;40.50;;;;;;5092317;28;20070;-72
2022/06/12 14:30:56;;;;;;;1.45;1.05;;;28.20;40.80;;;;;;5092724;28;20031;-72
2022/06/12 14:33:38;;;;;;;1.98;1.10;;;28.20;41.00;;;;;;5092283;28;20093;-72
2022/06/12 14:36:08;;;;;;;1.42;1.17;;;28.20;41.50;;;;;;5092543;28;20065;-72
2022/06/12 14:38:36;;;;;;;2.20;1.13;;;28.20;42.20;;;;;;5092083;28;20448;-71
2022/06/12 14:41:02;;;;;;;2.55;1.20;;;28.20;41.00;;;;;;5092627;28;20313;-71
2022/06/12 14:43:30;;;;;;;1.23;1.02;;;28.20;40.20;;;;;;5091701;28;20035;-72
2022/06/12 14:45:59;;;;;;;1.10;1.00;;;28.20;40.30;;;;;;5092226;28;20048;-72
2022/06/12 14:48:29;;;;;;;1.77;0.95;;;28.20;40.20;;;;;;5091975;28;20031;-72
2022/06/12 14:50:56;;;;;;;1.15;0.93;;;28.20;40.20;;;;;;5092402;28;20028;-73
2022/06/12 14:53:22;;;;;;;2.25;1.00;;;28.20;42.50;;;;;;5073612;28;20396;-72
2022/06/12 14:55:49;;;;;;;0.82;0.82;;;28.20;41.30;;;;;;5091692;28;20034;-72
2022/06/12 14:58:24;;;;;;;1.25;1.15;;;28.20;40.70;;;;;;5091739;28;20024;-72
2022/06/12 15:00:50;;;;;;;0.88;0.85;;;28.20;41.20;;;;;;5092059;28;20024;-72
2022/06/12 15:03:16;;;;;;;1.58;1.05;;;28.20;41.00;;;;;;5091749;28;20453;-71
2022/06/12 15:05:42;;;;;;;1.15;1.10;;;28.20;41.30;;;;;;5092149;28;20028;-71
2022/06/12 15:08:09;;;;;;;1.42;1.30;;;28.20;41.70;;;;;;5091727;28;20460;-72
2022/06/12 15:10:39;;;;;;;1.45;1.02;;;28.20;42.10;;;;;;5091529;28;20020;-72
2022/06/12 15:13:04;;;;;;;1.00;0.95;;;28.20;40.70;;;;;;5092023;28;20035;-71
2022/06/12 15:15:31;;;;;;;1.35;1.20;;;28.20;40.80;;;;;;5080636;28;20028;-73
2022/06/12 15:17:56;;;;;;;1.73;1.13;;;28.10;40.60;;;;;;5071489;28;20111;-72
2022/06/12 15:20:22;;;;;;;1.40;1.30;;;28.10;40.90;;;;;;5071399;28;20124;-71
2022/06/12 15:22:48;;;;;;;1.45;1.10;;;28.10;41.10;;;;;;5071900;28;20016;-72
2022/06/12 15:30:56;;;;;;;0.98;0.90;;;28.10;42.30;;;;;;5071915;28;20499;-73
2022/06/12 15:33:23;;;;;;;1.85;1.10;;;28.10;42.00;;;;;;5071503;28;20020;-72
2022/06/12 15:35:48;;;;;;;1.73;1.10;;;28.00;41.80;;;;;;5072110;28;20483;-72
2022/06/12 15:38:14;;;;;;;0.90;0.90;;;28.00;42.00;;;;;;5071946;28;20025;-71
2022/06/12 15:40:42;;;;;;;1.52;1.40;;;28.00;42.10;;;;;;5072016;28;20466;-72
2022/06/12 15:43:08;;;;;;;2.65;1.20;;;28.00;42.40;;;;;;5071688;28;20032;-71
2022/06/12 15:45:34;;;;;;;1.17;1.08;;;28.00;43.20;;;;;;5071060;28;20080;-71
2022/06/12 15:47:59;;;;;;;1.52;1.27;;;28.00;42.70;;;;;;5071410;28;20052;-73
2022/06/12 15:50:25;;;;;;;1.58;1.00;;;27.90;42.20;;;;;;5071219;28;20025;-72
2022/06/12 15:52:51;;;;;;;1.92;1.30;;;27.90;42.30;;;;;;5071803;28;20029;-72
2022/06/12 15:55:17;;;;;;;6.72;1.10;;;27.90;42.60;;;;;;5071480;28;20115;-71
2022/06/12 15:57:43;;;;;;;1.10;1.00;;;27.90;43.40;;;;;;5071527;28;20353;-72
2022/06/12 16:00:10;;;;;;;1.60;1.50;;;27.90;43.70;;;;;;5071584;28;20031;-72
2022/06/12 16:02:36;;;;;;;1.15;1.05;;;27.90;43.60;;;;;;5069998;28;20523;-72
2022/06/12 16:05:02;;;;;;;1.50;1.10;;;27.80;43.60;;;;;;5071108;28;20033;-72
2022/06/12 16:07:27;;;;;;;1.85;1.60;;;27.80;44.30;;;;;;5087516;28;20032;-72
2022/06/12 16:09:54;;;;;;;1.85;1.17;;;27.80;43.60;;;;;;5095813;28;20035;-72
2022/06/12 16:12:20;;;;;;;1.67;1.20;;;27.80;43.70;;;;;;5095319;28;20053;-72
2022/06/12 16:14:47;;;;;;;1.92;1.30;;;27.70;43.80;;;;;;5095421;28;20024;-73
2022/06/12 16:17:13;;;;;;;1.52;1.40;;;27.80;44.20;;;;;;5096037;28;20093;-73
2022/06/12 16:19:39;;;;;;;1.75;1.50;;;27.80;44.70;;;;;;5095395;28;20023;-73
2022/06/12 16:22:05;;;;;;;1.35;1.25;;;27.80;43.60;;;;;;5095638;28;20031;-73
2022/06/12 16:24:31;;;;;;;1.17;0.95;;;27.80;43.30;;;;;;5094651;28;20036;-72
2022/06/12 16:26:57;;;;;;;1.55;1.45;;;27.70;43.30;;;;;;5077142;28;20028;-72
2022/06/12 16:29:23;;;;;;;2.65;1.35;;;27.70;43.50;;;;;;5094954;28;20020;-72
2022/06/12 16:31:49;;;;;;;2.30;1.50;;;27.70;44.10;;;;;;5095214;28;20081;-72
2022/06/12 16:34:15;;;;;;;1.13;1.02;;;27.70;44.10;;;;;;5094634;28;20027;-73
2022/06/12 16:36:40;;;;;;;1.60;1.48;;;27.70;44.70;;;;;;5094958;28;20031;-72
2022/06/12 16:39:07;;;;;;;1.38;1.27;;;27.70;44.90;;;;;;5095029;28;20035;-73
2022/06/12 16:41:53;;;;;;;1.10;1.10;;;27.70;44.80;;;;;;5094298;28;20039;-72
2022/06/12 16:44:22;;;;;;;1.85;1.25;;;27.70;45.40;;;;;;5095028;28;20115;-72
2022/06/12 16:46:49;;;;;;;1.75;1.23;;;27.70;45.30;;;;;;5094794;28;20476;-72
2022/06/12 16:49:21;;;;;;;1.23;1.13;;;27.60;44.20;;;;;;5094762;28;20418;-72
2022/06/12 16:52:13;;;;;;;1.05;1.05;;;27.60;43.90;;;;;;5094686;28;20409;-72
2022/06/12 16:54:51;;;;;;;1.92;1.40;;;27.60;44.20;;;;;;5090165;28;20028;-73
2022/06/12 16:57:19;;;;;;;1.30;1.20;;;27.60;44.30;;;;;;5094607;28;20032;-72
2022/06/12 16:59:47;;;;;;;1.42;1.33;;;27.50;44.50;;;;;;5094167;28;20024;-72
2022/06/12 17:02:14;;;;;;;1.52;1.30;;;27.50;45.50;;;;;;5094413;28;20410;-72
2022/06/12 17:04:44;;;;;;;1.20;1.10;;;27.50;46.10;;;;;;5094165;28;20104;-72
2022/06/12 17:07:12;;;;;;;1.83;1.30;;;27.50;45.80;;;;;;5094272;28;20067;-72
2022/06/12 17:09:39;;;;;;;1.52;1.15;;;27.50;45.80;;;;;;5092088;28;20516;-72
2022/06/12 17:12:06;;;;;;;2.05;1.40;;;27.50;46.00;;;;;;5074228;28;20119;-73
2022/06/12 17:14:33;;;;;;;1.38;1.27;;;27.50;46.90;;;;;;5073594;28;20062;-72
2022/06/12 17:17:00;;;;;;;1.55;1.45;;;27.50;46.00;;;;;;5074448;28;20073;-73
2022/06/12 17:22:10;;;;;;;1.92;1.30;;;27.40;46.00;;;;;;5073936;28;20116;-72
2022/06/12 17:24:35;;;;;;;1.40;1.30;;;27.40;45.40;;;;;;5073630;28;20056;-73
2022/06/12 17:27:01;;;;;;;1.60;1.48;;;27.40;44.70;;;;;;5074152;28;20068;-72
2022/06/12 17:29:27;;;;;;;1.25;1.15;;;27.40;44.70;;;;;;5073396;28;20459;-72
2022/06/12 17:31:53;;;;;;;2.15;1.30;;;27.40;45.10;;;;;;5073962;28;20051;-72
2022/06/12 17:34:19;;;;;;;1.92;1.40;;;27.30;45.90;;;;;;5073607;28;20043;-73
2022/06/12 17:36:45;;;;;;;2.42;1.45;;;27.30;45.30;;;;;;5072927;28;20031;-73
2022/06/12 17:39:11;;;;;;;1.70;1.30;;;27.30;45.30;;;;;;5073634;28;20025;-73
2022/06/12 17:41:37;;;;;;;1.60;1.50;;;27.30;45.30;;;;;;5073026;28;20107;-72
2022/06/12 17:44:03;;;;;;;1.50;1.40;;;27.30;45.40;;;;;;5073657;28;20063;-72
2022/06/12 17:46:29;;;;;;;1.20;1.10;;;27.20;45.30;;;;;;5072663;28;20051;-71
2022/06/12 17:48:54;;;;;;;1.40;1.30;;;27.20;45.60;;;;;;5073521;28;20016;-72
2022/06/12 17:51:22;;;;;;;1.63;1.30;;;27.20;45.70;;;;;;5073185;28;20024;-72
2022/06/12 17:53:48;;;;;;;2.10;1.50;;;27.20;46.20;;;;;;5072787;28;20127;-72
2022/06/12 17:56:14;;;;;;;1.98;1.30;;;27.20;46.30;;;;;;5073111;28;20123;-72
2022/06/12 17:58:39;;;;;;;1.80;1.70;;;27.20;46.40;;;;;;5072716;28;20052;-72
2022/06/12 18:01:07;;;;;;;1.63;1.48;;;27.20;46.80;;;;;;5073275;28;20115;-72
2022/06/12 18:03:33;;;;;;;2.05;1.50;;;27.10;47.00;;;;;;5072784;28;20032;-71
2022/06/12 18:05:59;;;;;;;1.40;1.30;;;27.10;46.90;;;;;;5073168;28;20028;-72
2022/06/12 18:08:25;;;;;;;1.70;1.60;;;27.10;46.60;;;;;;5073018;28;20028;-72
2022/06/12 18:10:51;;;;;;;1.95;1.45;;;27.00;46.60;;;;;;5091671;28;20028;-72
2022/06/12 18:13:17;;;;;;;1.85;1.27;;;27.00;46.50;;;;;;5092949;28;20475;-73
2022/06/12 18:21:11;;;;;;;2.20;1.73;;;26.90;46.90;;;;;;5093456;28;20058;-72
2022/06/12 18:23:37;;;;;;;1.40;1.30;;;26.90;47.20;;;;;;5092484;28;20111;-73
2022/06/12 18:26:03;;;;;;;1.60;1.25;;;26.90;47.40;;;;;;5092762;28;20036;-72
2022/06/12 18:28:29;;;;;;;2.50;1.75;;;26.80;47.50;;;;;;5092396;28;20028;-72
2022/06/12 18:30:54;;;;;;;2.00;1.80;;;26.80;47.80;;;;;;5092256;28;20027;-72
2022/06/12 18:33:20;;;;;;;2.85;1.60;;;26.80;48.10;;;;;;5092586;28;20062;-71
2022/06/12 18:35:49;;;;;;;1.52;1.38;;;26.80;48.10;;;;;;5092447;28;20028;-73
2022/06/12 18:38:16;;;;;;;1.58;1.48;;;26.80;48.40;;;;;;5093086;28;20024;-73
2022/06/12 18:40:45;;;;;;;3.00;1.67;;;26.70;48.30;;;;;;5092690;28;20107;-73
2022/06/12 18:43:12;;;;;;;2.10;1.90;;;26.70;48.60;;;;;;5092803;28;20032;-73
2022/06/12 18:45:38;;;;;;;2.60;1.60;;;26.70;48.50;;;;;;5091962;28;20052;-73
2022/06/12 18:48:04;;;;;;;3.42;1.80;;;26.70;48.70;;;;;;5092452;28;20357;-72
2022/06/12 18:50:31;;;;;;;2.35;1.77;;;26.60;48.50;;;;;;5092090;28;20055;-71
2022/06/12 18:52:56;;;;;;;2.88;1.73;;;26.60;48.80;;;;;;5092404;28;20412;-72
2022/06/12 18:55:22;;;;;;;2.53;1.92;;;26.60;49.30;;;;;;5092456;28;20027;-73
2022/06/12 18:57:48;;;;;;;4.38;1.83;;;26.60;49.30;;;;;;5092582;28;20227;-73
2022/06/12 19:00:18;;;;;;;3.28;1.95;;;26.50;49.40;;;;;;5092612;28;20031;-72
2022/06/12 19:02:44;;;;;;;3.75;2.63;;;26.50;50.00;;;;;;5092306;28;20049;-73
2022/06/12 19:05:10;;;;;;;3.03;2.40;;;26.50;49.80;;;;;;5092439;28;20039;-73
2022/06/12 19:07:36;;;;;;;2.95;2.15;;;26.50;50.00;;;;;;5092250;28;20024;-73
2022/06/12 19:10:03;;;;;;;3.15;2.10;;;26.50;50.20;;;;;;5092503;28;20118;-72
2022/06/12 19:12:29;;;;;;;2.42;1.90;;;26.50;50.60;;;;;;5078132;28;20067;-73
2022/06/12 19:14:55;;;;;;;4.10;3.00;;;26.40;50.80;;;;;;5071472;28;20052;-73
2022/06/12 19:17:21;;;;;;;3.08;2.20;;;26.40;50.90;;;;;;5071836;28;20331;-74
2022/06/12 19:19:46;;;;;;;5.40;2.90;;;26.40;50.60;;;;;;5071419;28;20024;-73
2022/06/12 19:22:12;;;;;;;4.70;2.90;;;26.40;50.70;;;;;;5071506;28;20024;-73
2022/06/12 19:24:38;;;;;;;9.10;4.95;;;26.30;50.70;;;;;;5071379;28;20384;-73
2022/06/12 19:27:06;;;;;;;6.28;4.28;;;26.30;50.90;;;;;;5071841;28;20041;-72
2022/06/12 19:29:32;;;;;;;7.00;4.45;;;26.30;51.10;;;;;;5071423;28;20186;-72
2022/06/12 19:31:58;;;;;;;6.90;4.55;;;26.20;51.10;;;;;;5071924;28;20024;-72
2022/06/12 19:34:24;;;;;;;6.10;3.60;;;26.20;51.30;;;;;;5071880;28;20360;-73
2022/06/12 19:36:49;;;;;;;5.50;4.03;;;26.10;51.60;;;;;;5071385;28;20479;-72
2022/06/12 19:39:17;;;;;;;6.90;3.55;;;26.10;51.80;;;;;;5071674;28;20398;-72
2022/06/12 19:41:57;;;;;;;6.15;3.95;;;26.10;52.00;;;;;;5071005;28;20069;-72
2022/06/12 19:44:29;;;;;;;6.38;4.20;;;26.10;52.20;;;;;;5071603;28;20051;-73
2022/06/12 19:46:59;;;;;;;6.78;4.82;;;26.00;52.40;;;;;;5071035;28;20054;-73
2022/06/12 19:49:29;;;;;;;5.65;3.45;;;26.00;52.70;;;;;;5071766;28;20532;-72
2022/06/12 19:51:56;;;;;;;6.85;4.35;;;26.00;53.20;;;;;;5071392;28;20029;-71
2022/06/12 19:54:22;;;;;;;5.32;3.45;;;26.00;53.60;;;;;;5070957;28;20376;-72
2022/06/12 19:56:47;;;;;;;6.68;3.42;;;26.00;54.70;;;;;;5079898;28;20025;-72
2022/06/12 19:59:14;;;;;;;4.95;3.30;;;26.00;55.80;;;;;;5077147;28;20017;-73
2022/06/12 20:01:42;;;;;;;3.22;2.75;;;26.00;57.10;;;;;;5090963;28;20361;-72
2022/06/12 20:09:38;;;;;;;4.55;2.95;;;25.90;60.70;;;;;;5070857;28;20109;-72
2022/06/12 20:12:04;;;;;;;3.20;2.78;;;25.90;61.50;;;;;;5077745;28;20091;-72
2022/06/12 20:14:30;;;;;;;4.38;2.88;;;25.90;62.40;;;;;;5091192;28;20035;-72
2022/06/12 20:16:56;;;;;;;3.40;2.72;;;25.80;62.80;;;;;;5090862;28;20028;-72
2022/06/12 20:19:22;;;;;;;6.10;3.22;;;25.80;63.60;;;;;;5091442;28;20035;-72
2022/06/12 20:21:48;;;;;;;4.13;3.10;;;25.80;64.00;;;;;;5090972;28;20020;-72
2022/06/12 20:24:14;;;;;;;4.35;3.17;;;25.70;64.70;;;;;;5091470;28;20025;-73
2022/06/12 20:26:40;;;;;;;5.75;3.45;;;25.60;65.20;;;;;;5090856;28;20456;-71
2022/06/12 20:29:06;;;;;;;4.13;3.20;;;25.60;65.50;;;;;;5085258;28;20056;-70
2022/06/12 20:31:32;;;;;;;3.20;2.80;;;25.50;65.60;;;;;;5071026;28;20028;-71
2022/06/12 20:33:57;;;;;;;4.30;2.55;;;25.50;65.90;;;;;;5070602;28;20093;-71
2022/06/12 20:36:23;;;;;;;3.05;2.58;;;25.40;65.90;;;;;;5071254;28;20107;-72
2022/06/12 20:38:49;;;;;;;3.25;2.58;;;25.40;66.40;;;;;;5070769;28;20040;-71
2022/06/12 20:41:16;;;;;;;4.05;2.90;;;25.30;67.10;;;;;;5070829;28;20020;-72
2022/06/12 20:43:42;;;;;;;6.85;2.95;;;25.30;66.90;;;;;;5070453;28;20033;-71
2022/06/12 20:46:08;;;;;;;2.90;2.60;;;25.30;67.10;;;;;;5070429;28;20044;-71
2022/06/12 20:48:34;;;;;;;3.63;3.25;;;25.30;67.60;;;;;;5070427;28;20047;-70
2022/06/12 20:51:00;;;;;;;4.43;3.10;;;25.20;67.90;;;;;;5070500;28;20025;-71
2022/06/12 20:53:26;;;;;;;3.42;3.00;;;25.20;68.00;;;;;;5072269;28;20107;-71
2022/06/12 20:55:52;;;;;;;4.53;3.25;;;25.10;68.00;;;;;;5074178;28;20039;-70
2022/06/12 20:58:18;;;;;;;3.28;2.97;;;25.10;68.90;;;;;;5074504;28;20384;-71
2022/06/12 21:00:43;;;;;;;4.30;3.08;;;25.10;68.80;;;;;;5074052;28;20031;-71
2022/06/12 21:03:10;;;;;;;3.45;2.80;;;25.10;69.40;;;;;;5074316;28;20107;-71
2022/06/12 21:05:39;;;;;;;4.63;3.13;;;25.00;69.40;;;;;;5076482;28;20031;-70
2022/06/12 21:08:10;;;;;;;4.35;3.67;;;24.90;70.00;;;;;;5074107;28;20031;-70
2022/06/12 21:10:37;;;;;;;4.47;3.20;;;24.90;70.30;;;;;;5074153;28;20024;-71
2022/06/12 21:13:03;;;;;;;4.53;3.38;;;24.80;70.60;;;;;;5074295;28;20491;-71
2022/06/12 21:15:30;;;;;;;5.65;3.20;;;24.80;70.90;;;;;;5074018;28;20135;-70
2022/06/12 21:17:56;;;;;;;4.32;3.55;;;24.80;70.80;;;;;;5073692;28;20127;-70
2022/06/12 21:20:23;;;;;;;4.45;3.70;;;24.80;71.20;;;;;;5074012;28;20445;-70
2022/06/12 21:22:52;;;;;;;4.95;3.47;;;24.70;71.20;;;;;;5073548;28;20020;-71
2022/06/12 21:25:18;;;;;;;4.97;3.65;;;24.70;71.70;;;;;;5074001;28;20036;-71
2022/06/12 21:27:43;;;;;;;4.30;3.63;;;24.70;72.10;;;;;;5073371;28;20027;-71